sensor_id;sensor_type;location;lat;lon;timestamp;P1;durP1;ratioP1;P2;durP2;ratioP2
8139;SDS011;4111;50.972;7.072;2023-04-16T00:00:59;48.57;;;35.90;;
8139;SDS011;4111;50.972;7.072;2023-04-16T00:03:26;50.43;;;37.33;;
8139;SDS011;4111;50.972;7.072;2023-04-16T00:05:53;51.13;;;36.40;;
8139;SDS011;4111;50.972;7.072;2023-04-16T00:08:21;52.60;;;37.77;;
8139;SDS011;4111;50.972;7.072;2023-04-16T00:10:51;51.77;;;37.30;;
8139;SDS011;4111;50.972;7.072;2023-04-16T00:13:18;58.57;;;38.83;;
8139;SDS011;4111;50.972;7.072;2023-04-16T00:15:45;50.40;;;37.67;;
8139;SDS011;4111;50.972;7.072;2023-04-16T00:18:11;55.10;;;38.27;;
8139;SDS011;4111;50.972;7.072;2023-04-16T00:20:38;53.60;;;36.37;;
8139;SDS011;4111;50.972;7.072;2023-04-16T00:23:04;49.33;;;37.10;;
8139;SDS011;4111;50.972;7.072;2023-04-16T00:25:31;51.43;;;36.50;;
8139;SDS011;4111;50.972;7.072;2023-04-16T00:27:57;47.60;;;36.77;;
8139;SDS011;4111;50.972;7.072;2023-04-16T00:30:23;48.63;;;34.90;;
8139;SDS011;4111;50.972;7.072;2023-04-16T00:32:50;50.13;;;36.63;;
8139;SDS011;4111;50.972;7.072;2023-04-16T00:35:16;47.10;;;34.50;;
8139;SDS011;4111;50.972;7.072;2023-04-16T00:37:43;46.97;;;35.00;;
8139;SDS011;4111;50.972;7.072;2023-04-16T00:40:09;47.97;;;35.17;;
8139;SDS011;4111;50.972;7.072;2023-04-16T00:42:36;51.07;;;32.27;;
8139;SDS011;4111;50.972;7.072;2023-04-16T00:45:03;45.23;;;33.83;;
8139;SDS011;4111;50.972;7.072;2023-04-16T00:47:30;57.20;;;35.53;;
8139;SDS011;4111;50.972;7.072;2023-04-16T00:49:57;47.70;;;33.93;;
8139;SDS011;4111;50.972;7.072;2023-04-16T00:52:24;46.37;;;35.10;;
8139;SDS011;4111;50.972;7.072;2023-04-16T00:54:51;49.33;;;35.20;;
8139;SDS011;4111;50.972;7.072;2023-04-16T00:57:18;50.80;;;36.53;;
8139;SDS011;4111;50.972;7.072;2023-04-16T00:59:46;48.57;;;35.93;;
8139;SDS011;4111;50.972;7.072;2023-04-16T01:02:12;49.37;;;36.73;;
8139;SDS011;4111;50.972;7.072;2023-04-16T01:04:40;51.07;;;35.10;;
8139;SDS011;4111;50.972;7.072;2023-04-16T01:07:07;50.20;;;37.63;;
8139;SDS011;4111;50.972;7.072;2023-04-16T01:09:34;45.00;;;33.47;;
8139;SDS011;4111;50.972;7.072;2023-04-16T01:12:00;46.33;;;34.40;;
8139;SDS011;4111;50.972;7.072;2023-04-16T01:14:27;43.07;;;32.80;;
8139;SDS011;4111;50.972;7.072;2023-04-16T01:16:53;42.93;;;31.83;;
8139;SDS011;4111;50.972;7.072;2023-04-16T01:19:20;49.53;;;31.50;;
8139;SDS011;4111;50.972;7.072;2023-04-16T01:21:46;44.67;;;30.93;;
8139;SDS011;4111;50.972;7.072;2023-04-16T01:24:13;47.43;;;30.20;;
8139;SDS011;4111;50.972;7.072;2023-04-16T01:26:39;58.23;;;33.90;;
8139;SDS011;4111;50.972;7.072;2023-04-16T01:29:06;49.63;;;33.10;;
8139;SDS011;4111;50.972;7.072;2023-04-16T01:31:33;49.33;;;34.33;;
8139;SDS011;4111;50.972;7.072;2023-04-16T01:33:59;53.03;;;35.40;;
8139;SDS011;4111;50.972;7.072;2023-04-16T01:36:25;53.47;;;36.93;;
8139;SDS011;4111;50.972;7.072;2023-04-16T01:38:52;61.33;;;38.97;;
8139;SDS011;4111;50.972;7.072;2023-04-16T01:41:18;55.97;;;37.50;;
8139;SDS011;4111;50.972;7.072;2023-04-16T01:43:45;53.00;;;36.47;;
8139;SDS011;4111;50.972;7.072;2023-04-16T01:46:17;60.73;;;37.23;;
8139;SDS011;4111;50.972;7.072;2023-04-16T01:48:45;52.83;;;37.30;;
8139;SDS011;4111;50.972;7.072;2023-04-16T01:51:12;54.43;;;36.77;;
8139;SDS011;4111;50.972;7.072;2023-04-16T01:53:38;63.00;;;37.60;;
8139;SDS011;4111;50.972;7.072;2023-04-16T01:56:05;53.33;;;37.13;;
8139;SDS011;4111;50.972;7.072;2023-04-16T01:58:32;51.37;;;35.00;;
8139;SDS011;4111;50.972;7.072;2023-04-16T02:00:59;48.77;;;35.13;;
8139;SDS011;4111;50.972;7.072;2023-04-16T02:03:25;50.83;;;36.47;;
8139;SDS011;4111;50.972;7.072;2023-04-16T02:05:52;57.30;;;35.87;;
8139;SDS011;4111;50.972;7.072;2023-04-16T02:08:18;46.37;;;34.10;;
8139;SDS011;4111;50.972;7.072;2023-04-16T02:10:46;52.37;;;35.83;;
8139;SDS011;4111;50.972;7.072;2023-04-16T02:13:13;50.40;;;35.30;;
8139;SDS011;4111;50.972;7.072;2023-04-16T02:15:44;54.93;;;36.40;;
8139;SDS011;4111;50.972;7.072;2023-04-16T02:18:12;59.40;;;37.73;;
8139;SDS011;4111;50.972;7.072;2023-04-16T02:20:39;57.53;;;37.77;;
8139;SDS011;4111;50.972;7.072;2023-04-16T02:23:07;55.27;;;40.17;;
8139;SDS011;4111;50.972;7.072;2023-04-16T02:25:37;58.53;;;39.83;;
8139;SDS011;4111;50.972;7.072;2023-04-16T02:28:06;60.60;;;39.83;;
8139;SDS011;4111;50.972;7.072;2023-04-16T02:30:37;59.30;;;39.90;;
8139;SDS011;4111;50.972;7.072;2023-04-16T02:33:05;59.97;;;40.10;;
8139;SDS011;4111;50.972;7.072;2023-04-16T02:35:33;54.77;;;35.70;;
8139;SDS011;4111;50.972;7.072;2023-04-16T02:38:00;59.03;;;35.60;;
8139;SDS011;4111;50.972;7.072;2023-04-16T02:40:27;54.70;;;34.03;;
8139;SDS011;4111;50.972;7.072;2023-04-16T02:42:53;59.67;;;34.23;;
8139;SDS011;4111;50.972;7.072;2023-04-16T02:45:20;54.93;;;33.50;;
8139;SDS011;4111;50.972;7.072;2023-04-16T02:47:48;49.33;;;30.83;;
8139;SDS011;4111;50.972;7.072;2023-04-16T02:50:15;56.57;;;33.03;;
8139;SDS011;4111;50.972;7.072;2023-04-16T02:52:42;51.93;;;31.73;;
8139;SDS011;4111;50.972;7.072;2023-04-16T02:55:09;46.43;;;31.07;;
8139;SDS011;4111;50.972;7.072;2023-04-16T02:57:36;49.70;;;28.63;;
8139;SDS011;4111;50.972;7.072;2023-04-16T03:00:02;42.87;;;28.33;;
8139;SDS011;4111;50.972;7.072;2023-04-16T03:02:30;53.60;;;28.63;;
8139;SDS011;4111;50.972;7.072;2023-04-16T03:04:56;42.53;;;26.87;;
8139;SDS011;4111;50.972;7.072;2023-04-16T03:07:23;44.87;;;28.20;;
8139;SDS011;4111;50.972;7.072;2023-04-16T03:09:49;47.27;;;28.23;;
8139;SDS011;4111;50.972;7.072;2023-04-16T03:12:16;45.13;;;28.03;;
8139;SDS011;4111;50.972;7.072;2023-04-16T03:14:42;48.33;;;27.33;;
8139;SDS011;4111;50.972;7.072;2023-04-16T03:17:08;47.33;;;28.13;;
8139;SDS011;4111;50.972;7.072;2023-04-16T03:19:35;50.67;;;29.17;;
8139;SDS011;4111;50.972;7.072;2023-04-16T03:22:01;53.77;;;28.83;;
8139;SDS011;4111;50.972;7.072;2023-04-16T03:24:28;49.80;;;29.17;;
8139;SDS011;4111;50.972;7.072;2023-04-16T03:26:56;44.77;;;28.80;;
8139;SDS011;4111;50.972;7.072;2023-04-16T03:29:23;51.07;;;30.00;;
8139;SDS011;4111;50.972;7.072;2023-04-16T03:31:49;58.30;;;32.07;;
8139;SDS011;4111;50.972;7.072;2023-04-16T03:34:16;54.23;;;31.33;;
8139;SDS011;4111;50.972;7.072;2023-04-16T03:36:42;50.73;;;32.13;;
8139;SDS011;4111;50.972;7.072;2023-04-16T03:39:08;56.90;;;32.03;;
8139;SDS011;4111;50.972;7.072;2023-04-16T03:41:35;54.43;;;33.13;;
8139;SDS011;4111;50.972;7.072;2023-04-16T03:44:01;61.23;;;34.53;;
8139;SDS011;4111;50.972;7.072;2023-04-16T03:46:28;58.70;;;35.37;;
8139;SDS011;4111;50.972;7.072;2023-04-16T03:48:54;59.33;;;35.67;;
8139;SDS011;4111;50.972;7.072;2023-04-16T03:51:21;57.13;;;35.97;;
8139;SDS011;4111;50.972;7.072;2023-04-16T03:53:47;61.73;;;35.60;;
8139;SDS011;4111;50.972;7.072;2023-04-16T03:56:14;58.43;;;35.23;;
8139;SDS011;4111;50.972;7.072;2023-04-16T03:58:40;68.10;;;36.13;;
8139;SDS011;4111;50.972;7.072;2023-04-16T04:01:06;71.23;;;37.50;;
8139;SDS011;4111;50.972;7.072;2023-04-16T04:03:33;64.70;;;36.00;;
8139;SDS011;4111;50.972;7.072;2023-04-16T04:05:59;70.00;;;37.73;;
8139;SDS011;4111;50.972;7.072;2023-04-16T04:08:26;61.87;;;36.17;;
8139;SDS011;4111;50.972;7.072;2023-04-16T04:10:52;63.50;;;35.67;;
8139;SDS011;4111;50.972;7.072;2023-04-16T04:13:19;54.10;;;34.40;;
8139;SDS011;4111;50.972;7.072;2023-04-16T04:15:45;63.00;;;35.50;;
8139;SDS011;4111;50.972;7.072;2023-04-16T04:18:11;62.10;;;36.60;;
8139;SDS011;4111;50.972;7.072;2023-04-16T04:20:38;60.47;;;35.63;;
8139;SDS011;4111;50.972;7.072;2023-04-16T04:23:06;70.50;;;38.80;;
8139;SDS011;4111;50.972;7.072;2023-04-16T04:25:32;61.20;;;36.87;;
8139;SDS011;4111;50.972;7.072;2023-04-16T04:27:59;67.63;;;35.50;;
8139;SDS011;4111;50.972;7.072;2023-04-16T04:30:26;67.33;;;36.77;;
8139;SDS011;4111;50.972;7.072;2023-04-16T04:32:52;64.23;;;35.97;;
8139;SDS011;4111;50.972;7.072;2023-04-16T04:35:19;61.03;;;35.67;;
8139;SDS011;4111;50.972;7.072;2023-04-16T04:37:46;58.03;;;36.77;;
8139;SDS011;4111;50.972;7.072;2023-04-16T04:40:12;58.37;;;36.17;;
8139;SDS011;4111;50.972;7.072;2023-04-16T04:42:39;57.50;;;35.60;;
8139;SDS011;4111;50.972;7.072;2023-04-16T04:45:06;65.23;;;37.33;;
8139;SDS011;4111;50.972;7.072;2023-04-16T04:47:33;65.33;;;37.37;;
8139;SDS011;4111;50.972;7.072;2023-04-16T04:49:59;65.60;;;36.40;;
8139;SDS011;4111;50.972;7.072;2023-04-16T04:52:26;63.30;;;36.37;;
8139;SDS011;4111;50.972;7.072;2023-04-16T04:54:52;59.73;;;36.03;;
8139;SDS011;4111;50.972;7.072;2023-04-16T04:57:18;59.00;;;35.10;;
8139;SDS011;4111;50.972;7.072;2023-04-16T04:59:45;58.90;;;36.13;;
8139;SDS011;4111;50.972;7.072;2023-04-16T05:02:12;59.50;;;35.83;;
8139;SDS011;4111;50.972;7.072;2023-04-16T05:04:38;57.57;;;34.73;;
8139;SDS011;4111;50.972;7.072;2023-04-16T05:07:05;59.27;;;35.40;;
8139;SDS011;4111;50.972;7.072;2023-04-16T05:09:32;58.80;;;35.40;;
8139;SDS011;4111;50.972;7.072;2023-04-16T05:11:58;56.37;;;35.50;;
8139;SDS011;4111;50.972;7.072;2023-04-16T05:14:25;59.10;;;35.33;;
8139;SDS011;4111;50.972;7.072;2023-04-16T05:16:51;54.00;;;35.07;;
8139;SDS011;4111;50.972;7.072;2023-04-16T05:19:17;53.93;;;32.53;;
8139;SDS011;4111;50.972;7.072;2023-04-16T05:21:44;49.13;;;32.27;;
8139;SDS011;4111;50.972;7.072;2023-04-16T05:24:10;52.73;;;33.27;;
8139;SDS011;4111;50.972;7.072;2023-04-16T05:26:40;58.03;;;33.87;;
8139;SDS011;4111;50.972;7.072;2023-04-16T05:29:06;49.80;;;32.47;;
8139;SDS011;4111;50.972;7.072;2023-04-16T05:31:33;54.67;;;33.63;;
8139;SDS011;4111;50.972;7.072;2023-04-16T05:34:00;60.20;;;35.23;;
8139;SDS011;4111;50.972;7.072;2023-04-16T05:36:27;59.60;;;34.57;;
8139;SDS011;4111;50.972;7.072;2023-04-16T05:38:53;58.43;;;32.67;;
8139;SDS011;4111;50.972;7.072;2023-04-16T05:41:20;55.13;;;34.07;;
8139;SDS011;4111;50.972;7.072;2023-04-16T05:43:46;53.37;;;34.67;;
8139;SDS011;4111;50.972;7.072;2023-04-16T05:46:12;51.43;;;33.30;;
8139;SDS011;4111;50.972;7.072;2023-04-16T05:48:39;59.00;;;34.53;;
8139;SDS011;4111;50.972;7.072;2023-04-16T05:51:05;55.17;;;34.10;;
8139;SDS011;4111;50.972;7.072;2023-04-16T05:53:32;54.70;;;33.30;;
8139;SDS011;4111;50.972;7.072;2023-04-16T05:55:58;51.93;;;34.10;;
8139;SDS011;4111;50.972;7.072;2023-04-16T05:58:24;52.17;;;34.00;;
8139;SDS011;4111;50.972;7.072;2023-04-16T06:00:51;60.47;;;35.17;;
8139;SDS011;4111;50.972;7.072;2023-04-16T06:03:17;59.37;;;35.90;;
8139;SDS011;4111;50.972;7.072;2023-04-16T06:05:44;51.93;;;32.63;;
8139;SDS011;4111;50.972;7.072;2023-04-16T06:08:11;55.27;;;34.90;;
8139;SDS011;4111;50.972;7.072;2023-04-16T06:10:37;50.50;;;32.07;;
8139;SDS011;4111;50.972;7.072;2023-04-16T06:13:04;56.83;;;34.50;;
8139;SDS011;4111;50.972;7.072;2023-04-16T06:15:30;59.50;;;34.77;;
8139;SDS011;4111;50.972;7.072;2023-04-16T06:17:57;51.57;;;32.17;;
8139;SDS011;4111;50.972;7.072;2023-04-16T06:20:26;54.50;;;32.23;;
8139;SDS011;4111;50.972;7.072;2023-04-16T06:22:52;50.97;;;31.60;;
8139;SDS011;4111;50.972;7.072;2023-04-16T06:25:19;50.33;;;31.90;;
8139;SDS011;4111;50.972;7.072;2023-04-16T06:27:45;54.57;;;32.30;;
8139;SDS011;4111;50.972;7.072;2023-04-16T06:30:12;55.43;;;32.47;;
8139;SDS011;4111;50.972;7.072;2023-04-16T06:32:40;50.93;;;30.17;;
8139;SDS011;4111;50.972;7.072;2023-04-16T06:35:07;48.53;;;30.07;;
8139;SDS011;4111;50.972;7.072;2023-04-16T06:37:34;48.40;;;29.47;;
8139;SDS011;4111;50.972;7.072;2023-04-16T06:40:01;45.87;;;27.97;;
8139;SDS011;4111;50.972;7.072;2023-04-16T06:42:27;45.30;;;29.10;;
8139;SDS011;4111;50.972;7.072;2023-04-16T06:44:53;41.80;;;28.07;;
8139;SDS011;4111;50.972;7.072;2023-04-16T06:47:20;44.37;;;26.33;;
8139;SDS011;4111;50.972;7.072;2023-04-16T06:49:46;38.77;;;25.93;;
8139;SDS011;4111;50.972;7.072;2023-04-16T06:52:13;42.37;;;26.93;;
8139;SDS011;4111;50.972;7.072;2023-04-16T06:54:39;46.47;;;28.27;;
8139;SDS011;4111;50.972;7.072;2023-04-16T06:57:06;41.90;;;26.80;;
8139;SDS011;4111;50.972;7.072;2023-04-16T06:59:32;44.23;;;27.37;;
8139;SDS011;4111;50.972;7.072;2023-04-16T07:01:58;46.30;;;27.63;;
8139;SDS011;4111;50.972;7.072;2023-04-16T07:04:25;43.00;;;27.47;;
8139;SDS011;4111;50.972;7.072;2023-04-16T07:06:51;39.43;;;25.87;;
8139;SDS011;4111;50.972;7.072;2023-04-16T07:09:18;40.20;;;24.83;;
8139;SDS011;4111;50.972;7.072;2023-04-16T07:11:44;35.13;;;23.90;;
8139;SDS011;4111;50.972;7.072;2023-04-16T07:14:11;34.23;;;23.27;;
8139;SDS011;4111;50.972;7.072;2023-04-16T07:16:38;37.27;;;23.53;;
8139;SDS011;4111;50.972;7.072;2023-04-16T07:19:05;36.27;;;23.47;;
8139;SDS011;4111;50.972;7.072;2023-04-16T07:21:32;27.70;;;20.37;;
8139;SDS011;4111;50.972;7.072;2023-04-16T07:23:58;39.70;;;21.90;;
8139;SDS011;4111;50.972;7.072;2023-04-16T07:26:24;25.27;;;18.80;;
8139;SDS011;4111;50.972;7.072;2023-04-16T07:28:51;33.03;;;20.17;;
8139;SDS011;4111;50.972;7.072;2023-04-16T07:31:17;25.50;;;18.27;;
8139;SDS011;4111;50.972;7.072;2023-04-16T07:33:44;31.77;;;20.50;;
8139;SDS011;4111;50.972;7.072;2023-04-16T07:36:10;26.63;;;18.53;;
8139;SDS011;4111;50.972;7.072;2023-04-16T07:38:37;30.10;;;19.03;;
8139;SDS011;4111;50.972;7.072;2023-04-16T07:41:03;28.17;;;19.43;;
8139;SDS011;4111;50.972;7.072;2023-04-16T07:43:30;27.27;;;18.97;;
8139;SDS011;4111;50.972;7.072;2023-04-16T07:45:56;24.63;;;18.23;;
8139;SDS011;4111;50.972;7.072;2023-04-16T07:48:22;26.37;;;18.93;;
8139;SDS011;4111;50.972;7.072;2023-04-16T07:50:49;25.87;;;18.20;;
8139;SDS011;4111;50.972;7.072;2023-04-16T07:53:16;24.23;;;17.73;;
8139;SDS011;4111;50.972;7.072;2023-04-16T07:55:43;27.63;;;18.13;;
8139;SDS011;4111;50.972;7.072;2023-04-16T07:58:09;26.33;;;17.40;;
8139;SDS011;4111;50.972;7.072;2023-04-16T08:00:36;23.90;;;17.90;;
8139;SDS011;4111;50.972;7.072;2023-04-16T08:03:02;28.87;;;18.03;;
8139;SDS011;4111;50.972;7.072;2023-04-16T08:05:29;27.70;;;18.20;;
8139;SDS011;4111;50.972;7.072;2023-04-16T08:07:55;25.87;;;18.13;;
8139;SDS011;4111;50.972;7.072;2023-04-16T08:10:22;25.07;;;18.57;;
8139;SDS011;4111;50.972;7.072;2023-04-16T08:12:48;23.40;;;17.53;;
8139;SDS011;4111;50.972;7.072;2023-04-16T08:15:15;26.33;;;19.63;;
8139;SDS011;4111;50.972;7.072;2023-04-16T08:17:41;29.77;;;20.73;;
8139;SDS011;4111;50.972;7.072;2023-04-16T08:20:08;27.67;;;20.47;;
8139;SDS011;4111;50.972;7.072;2023-04-16T08:22:39;28.03;;;21.13;;
8139;SDS011;4111;50.972;7.072;2023-04-16T08:25:06;29.27;;;22.07;;
8139;SDS011;4111;50.972;7.072;2023-04-16T08:27:33;26.60;;;21.33;;
8139;SDS011;4111;50.972;7.072;2023-04-16T08:29:59;27.97;;;21.10;;
8139;SDS011;4111;50.972;7.072;2023-04-16T08:32:25;27.73;;;19.97;;
8139;SDS011;4111;50.972;7.072;2023-04-16T08:34:52;28.03;;;20.67;;
8139;SDS011;4111;50.972;7.072;2023-04-16T08:37:18;28.50;;;20.80;;
8139;SDS011;4111;50.972;7.072;2023-04-16T08:39:45;30.77;;;21.10;;
8139;SDS011;4111;50.972;7.072;2023-04-16T08:42:17;28.87;;;20.90;;
8139;SDS011;4111;50.972;7.072;2023-04-16T08:44:49;27.13;;;19.93;;
8139;SDS011;4111;50.972;7.072;2023-04-16T08:47:18;27.90;;;19.67;;
8139;SDS011;4111;50.972;7.072;2023-04-16T08:49:47;30.63;;;20.27;;
8139;SDS011;4111;50.972;7.072;2023-04-16T08:52:16;25.03;;;19.33;;
8139;SDS011;4111;50.972;7.072;2023-04-16T08:54:47;23.47;;;19.43;;
8139;SDS011;4111;50.972;7.072;2023-04-16T08:57:46;27.43;;;20.80;;
8139;SDS011;4111;50.972;7.072;2023-04-16T09:00:15;27.53;;;19.50;;
8139;SDS011;4111;50.972;7.072;2023-04-16T09:02:42;22.47;;;18.50;;
8139;SDS011;4111;50.972;7.072;2023-04-16T09:05:09;25.20;;;19.23;;
8139;SDS011;4111;50.972;7.072;2023-04-16T09:07:39;28.10;;;19.30;;
8139;SDS011;4111;50.972;7.072;2023-04-16T09:10:07;24.77;;;19.53;;
8139;SDS011;4111;50.972;7.072;2023-04-16T09:12:34;24.40;;;19.50;;
8139;SDS011;4111;50.972;7.072;2023-04-16T09:15:00;25.03;;;18.60;;
8139;SDS011;4111;50.972;7.072;2023-04-16T09:17:28;22.73;;;18.80;;
8139;SDS011;4111;50.972;7.072;2023-04-16T09:19:56;25.27;;;18.90;;
8139;SDS011;4111;50.972;7.072;2023-04-16T09:22:22;23.50;;;18.90;;
8139;SDS011;4111;50.972;7.072;2023-04-16T09:24:49;22.47;;;19.07;;
8139;SDS011;4111;50.972;7.072;2023-04-16T09:27:15;20.87;;;18.47;;
8139;SDS011;4111;50.972;7.072;2023-04-16T09:29:42;21.57;;;18.40;;
8139;SDS011;4111;50.972;7.072;2023-04-16T09:32:09;23.47;;;18.97;;
8139;SDS011;4111;50.972;7.072;2023-04-16T09:34:56;25.43;;;18.90;;
8139;SDS011;4111;50.972;7.072;2023-04-16T09:37:23;20.23;;;18.00;;
8139;SDS011;4111;50.972;7.072;2023-04-16T09:40:00;25.10;;;18.87;;
8139;SDS011;4111;50.972;7.072;2023-04-16T09:42:28;22.20;;;18.20;;
8139;SDS011;4111;50.972;7.072;2023-04-16T09:44:59;25.63;;;19.03;;
8139;SDS011;4111;50.972;7.072;2023-04-16T09:47:38;23.13;;;18.73;;
8139;SDS011;4111;50.972;7.072;2023-04-16T09:50:06;21.30;;;18.50;;
8139;SDS011;4111;50.972;7.072;2023-04-16T09:52:37;24.30;;;19.77;;
8139;SDS011;4111;50.972;7.072;2023-04-16T09:55:03;20.80;;;18.20;;
8139;SDS011;4111;50.972;7.072;2023-04-16T09:57:30;24.17;;;19.27;;
8139;SDS011;4111;50.972;7.072;2023-04-16T10:00:00;23.27;;;18.77;;
8139;SDS011;4111;50.972;7.072;2023-04-16T10:02:29;21.20;;;18.73;;
8139;SDS011;4111;50.972;7.072;2023-04-16T10:04:56;24.27;;;18.27;;
8139;SDS011;4111;50.972;7.072;2023-04-16T10:07:26;22.67;;;18.90;;
8139;SDS011;4111;50.972;7.072;2023-04-16T10:09:54;20.83;;;17.87;;
8139;SDS011;4111;50.972;7.072;2023-04-16T10:12:21;21.40;;;18.30;;
8139;SDS011;4111;50.972;7.072;2023-04-16T10:14:48;24.83;;;19.10;;
8139;SDS011;4111;50.972;7.072;2023-04-16T10:17:15;22.13;;;18.83;;
8139;SDS011;4111;50.972;7.072;2023-04-16T10:19:42;23.67;;;19.13;;
8139;SDS011;4111;50.972;7.072;2023-04-16T10:22:09;23.43;;;19.97;;
8139;SDS011;4111;50.972;7.072;2023-04-16T10:24:36;24.50;;;17.67;;
8139;SDS011;4111;50.972;7.072;2023-04-16T10:27:03;23.27;;;18.13;;
8139;SDS011;4111;50.972;7.072;2023-04-16T10:29:29;22.90;;;18.67;;
8139;SDS011;4111;50.972;7.072;2023-04-16T10:31:57;20.93;;;16.67;;
8139;SDS011;4111;50.972;7.072;2023-04-16T10:34:24;18.73;;;16.83;;
8139;SDS011;4111;50.972;7.072;2023-04-16T10:36:52;17.97;;;16.17;;
8139;SDS011;4111;50.972;7.072;2023-04-16T10:39:20;19.93;;;16.40;;
8139;SDS011;4111;50.972;7.072;2023-04-16T10:41:48;20.00;;;16.23;;
8139;SDS011;4111;50.972;7.072;2023-04-16T10:44:16;17.73;;;15.70;;
8139;SDS011;4111;50.972;7.072;2023-04-16T10:46:47;18.03;;;16.13;;
8139;SDS011;4111;50.972;7.072;2023-04-16T10:49:17;18.73;;;16.57;;
8139;SDS011;4111;50.972;7.072;2023-04-16T10:51:55;18.60;;;16.00;;
8139;SDS011;4111;50.972;7.072;2023-04-16T10:54:23;18.30;;;15.77;;
8139;SDS011;4111;50.972;7.072;2023-04-16T10:56:51;18.70;;;16.50;;
8139;SDS011;4111;50.972;7.072;2023-04-16T10:59:19;17.40;;;15.00;;
8139;SDS011;4111;50.972;7.072;2023-04-16T11:01:51;19.43;;;15.80;;
8139;SDS011;4111;50.972;7.072;2023-04-16T11:12:16;17.67;;;15.67;;
8139;SDS011;4111;50.972;7.072;2023-04-16T11:14:50;18.07;;;16.20;;
8139;SDS011;4111;50.972;7.072;2023-04-16T11:17:18;20.03;;;17.90;;
8139;SDS011;4111;50.972;7.072;2023-04-16T11:19:46;18.30;;;16.27;;
8139;SDS011;4111;50.972;7.072;2023-04-16T11:22:13;18.70;;;16.70;;
8139;SDS011;4111;50.972;7.072;2023-04-16T11:24:45;19.20;;;16.33;;
8139;SDS011;4111;50.972;7.072;2023-04-16T11:27:12;18.07;;;14.90;;
8139;SDS011;4111;50.972;7.072;2023-04-16T11:29:40;16.97;;;15.20;;
8139;SDS011;4111;50.972;7.072;2023-04-16T11:32:07;15.93;;;14.23;;
8139;SDS011;4111;50.972;7.072;2023-04-16T11:34:33;15.90;;;14.20;;
8139;SDS011;4111;50.972;7.072;2023-04-16T11:37:07;15.40;;;13.80;;
8139;SDS011;4111;50.972;7.072;2023-04-16T11:39:45;16.33;;;14.63;;
8139;SDS011;4111;50.972;7.072;2023-04-16T11:42:19;16.00;;;13.53;;
8139;SDS011;4111;50.972;7.072;2023-04-16T11:44:54;16.53;;;14.87;;
8139;SDS011;4111;50.972;7.072;2023-04-16T11:47:22;16.87;;;14.73;;
8139;SDS011;4111;50.972;7.072;2023-04-16T11:49:49;17.97;;;16.07;;
8139;SDS011;4111;50.972;7.072;2023-04-16T11:52:26;17.13;;;14.97;;
8139;SDS011;4111;50.972;7.072;2023-04-16T11:54:54;15.13;;;13.73;;
8139;SDS011;4111;50.972;7.072;2023-04-16T11:57:28;16.00;;;14.30;;
8139;SDS011;4111;50.972;7.072;2023-04-16T11:59:59;15.23;;;13.57;;
8139;SDS011;4111;50.972;7.072;2023-04-16T12:02:44;15.60;;;13.90;;
8139;SDS011;4111;50.972;7.072;2023-04-16T12:05:25;14.40;;;13.00;;
8139;SDS011;4111;50.972;7.072;2023-04-16T12:08:09;18.40;;;12.90;;
8139;SDS011;4111;50.972;7.072;2023-04-16T12:10:37;14.47;;;12.23;;
8139;SDS011;4111;50.972;7.072;2023-04-16T12:13:19;13.60;;;11.70;;
8139;SDS011;4111;50.972;7.072;2023-04-16T12:15:46;14.27;;;12.57;;
8139;SDS011;4111;50.972;7.072;2023-04-16T12:18:18;13.90;;;12.20;;
8139;SDS011;4111;50.972;7.072;2023-04-16T12:20:45;13.30;;;11.93;;
8139;SDS011;4111;50.972;7.072;2023-04-16T12:23:25;12.13;;;10.93;;
8139;SDS011;4111;50.972;7.072;2023-04-16T12:25:53;12.13;;;10.90;;
8139;SDS011;4111;50.972;7.072;2023-04-16T12:28:33;12.37;;;11.17;;
8139;SDS011;4111;50.972;7.072;2023-04-16T12:31:03;12.53;;;10.57;;
8139;SDS011;4111;50.972;7.072;2023-04-16T12:33:30;13.93;;;12.20;;
8139;SDS011;4111;50.972;7.072;2023-04-16T12:35:57;14.47;;;13.07;;
8139;SDS011;4111;50.972;7.072;2023-04-16T12:38:24;13.37;;;12.07;;
8139;SDS011;4111;50.972;7.072;2023-04-16T12:40:51;14.30;;;12.80;;
8139;SDS011;4111;50.972;7.072;2023-04-16T12:43:21;14.30;;;12.33;;
8139;SDS011;4111;50.972;7.072;2023-04-16T12:45:48;13.53;;;11.13;;
8139;SDS011;4111;50.972;7.072;2023-04-16T12:48:14;11.97;;;10.87;;
8139;SDS011;4111;50.972;7.072;2023-04-16T12:50:41;11.73;;;10.70;;
8139;SDS011;4111;50.972;7.072;2023-04-16T12:53:09;12.50;;;11.30;;
8139;SDS011;4111;50.972;7.072;2023-04-16T12:55:35;11.80;;;10.47;;
8139;SDS011;4111;50.972;7.072;2023-04-16T12:58:02;11.93;;;10.70;;
8139;SDS011;4111;50.972;7.072;2023-04-16T13:00:28;11.17;;;10.07;;
8139;SDS011;4111;50.972;7.072;2023-04-16T13:02:54;11.83;;;10.47;;
8139;SDS011;4111;50.972;7.072;2023-04-16T13:05:21;10.60;;;9.53;;
8139;SDS011;4111;50.972;7.072;2023-04-16T13:07:47;11.30;;;10.30;;
8139;SDS011;4111;50.972;7.072;2023-04-16T13:10:14;13.27;;;10.80;;
8139;SDS011;4111;50.972;7.072;2023-04-16T13:12:41;14.27;;;11.23;;
8139;SDS011;4111;50.972;7.072;2023-04-16T13:15:08;12.97;;;11.67;;
8139;SDS011;4111;50.972;7.072;2023-04-16T13:17:35;14.57;;;12.60;;
8139;SDS011;4111;50.972;7.072;2023-04-16T13:20:02;16.30;;;14.57;;
8139;SDS011;4111;50.972;7.072;2023-04-16T13:22:28;13.80;;;11.70;;
8139;SDS011;4111;50.972;7.072;2023-04-16T13:24:55;14.00;;;11.73;;
8139;SDS011;4111;50.972;7.072;2023-04-16T13:27:22;14.73;;;13.20;;
8139;SDS011;4111;50.972;7.072;2023-04-16T13:29:48;13.57;;;12.17;;
8139;SDS011;4111;50.972;7.072;2023-04-16T13:32:15;14.63;;;13.07;;
8139;SDS011;4111;50.972;7.072;2023-04-16T13:34:41;10.73;;;9.73;;
8139;SDS011;4111;50.972;7.072;2023-04-16T13:37:08;11.03;;;10.00;;
8139;SDS011;4111;50.972;7.072;2023-04-16T13:39:34;11.40;;;10.30;;
8139;SDS011;4111;50.972;7.072;2023-04-16T13:42:00;11.53;;;10.43;;
8139;SDS011;4111;50.972;7.072;2023-04-16T13:44:27;11.43;;;10.37;;
8139;SDS011;4111;50.972;7.072;2023-04-16T13:46:54;11.43;;;10.37;;
8139;SDS011;4111;50.972;7.072;2023-04-16T13:49:21;11.73;;;10.63;;
8139;SDS011;4111;50.972;7.072;2023-04-16T13:51:48;11.87;;;10.67;;
8139;SDS011;4111;50.972;7.072;2023-04-16T13:54:15;12.47;;;11.33;;
8139;SDS011;4111;50.972;7.072;2023-04-16T13:56:41;11.37;;;10.17;;
8139;SDS011;4111;50.972;7.072;2023-04-16T13:59:08;12.13;;;10.93;;
8139;SDS011;4111;50.972;7.072;2023-04-16T14:01:35;12.57;;;11.27;;
8139;SDS011;4111;50.972;7.072;2023-04-16T14:04:01;12.37;;;10.83;;
8139;SDS011;4111;50.972;7.072;2023-04-16T14:06:32;12.37;;;11.17;;
8139;SDS011;4111;50.972;7.072;2023-04-16T14:09:01;11.90;;;10.70;;
8139;SDS011;4111;50.972;7.072;2023-04-16T14:11:29;13.70;;;10.17;;
8139;SDS011;4111;50.972;7.072;2023-04-16T14:13:56;12.17;;;10.87;;
8139;SDS011;4111;50.972;7.072;2023-04-16T14:16:23;11.17;;;10.07;;
8139;SDS011;4111;50.972;7.072;2023-04-16T14:18:49;12.50;;;11.10;;
8139;SDS011;4111;50.972;7.072;2023-04-16T14:21:17;12.33;;;10.57;;
8139;SDS011;4111;50.972;7.072;2023-04-16T14:23:43;12.87;;;10.50;;
8139;SDS011;4111;50.972;7.072;2023-04-16T14:26:10;11.53;;;10.43;;
8139;SDS011;4111;50.972;7.072;2023-04-16T14:28:39;11.40;;;10.20;;
8139;SDS011;4111;50.972;7.072;2023-04-16T14:31:06;11.50;;;10.40;;
8139;SDS011;4111;50.972;7.072;2023-04-16T14:33:33;11.43;;;10.43;;
8139;SDS011;4111;50.972;7.072;2023-04-16T14:35:59;12.73;;;11.43;;
8139;SDS011;4111;50.972;7.072;2023-04-16T14:38:28;12.47;;;11.27;;
8139;SDS011;4111;50.972;7.072;2023-04-16T14:40:55;12.47;;;11.23;;
8139;SDS011;4111;50.972;7.072;2023-04-16T14:43:21;12.70;;;11.40;;
8139;SDS011;4111;50.972;7.072;2023-04-16T14:45:48;13.20;;;11.57;;
8139;SDS011;4111;50.972;7.072;2023-04-16T14:48:14;13.30;;;12.03;;
8139;SDS011;4111;50.972;7.072;2023-04-16T14:50:41;13.23;;;11.83;;
8139;SDS011;4111;50.972;7.072;2023-04-16T14:53:12;13.23;;;11.93;;
8139;SDS011;4111;50.972;7.072;2023-04-16T14:55:38;12.57;;;11.27;;
8139;SDS011;4111;50.972;7.072;2023-04-16T14:58:05;13.30;;;11.90;;